createdAt,value
2023-03-11T00:01:07.977Z,12.52
2023-03-11T00:03:35.630Z,11.84
2023-03-11T00:06:03.191Z,11.89
2023-03-11T00:08:30.952Z,12.03
2023-03-11T00:11:00.591Z,12.23
2023-03-11T00:13:30.495Z,11.90
2023-03-11T00:15:57.956Z,11.88
2023-03-11T00:18:28.105Z,11.80
2023-03-11T00:20:56.460Z,11.56
2023-03-11T00:23:25.100Z,11.49
2023-03-11T00:25:53.266Z,11.47
2023-03-11T00:28:22.260Z,11.64
2023-03-11T00:30:49.653Z,11.41
2023-03-11T00:33:17.363Z,11.39
2023-03-11T00:35:45.015Z,11.35
2023-03-11T00:38:16.592Z,11.54
2023-03-11T00:40:46.085Z,11.39
2023-03-11T00:43:14.134Z,11.24
2023-03-11T00:45:41.625Z,11.05
2023-03-11T00:48:09.580Z,11.64
2023-03-11T00:50:37.759Z,11.71
2023-03-11T00:53:06.218Z,11.63
2023-03-11T00:55:35.477Z,11.81
2023-03-11T00:58:05.247Z,11.09
2023-03-11T01:00:34.046Z,11.46
2023-03-11T01:03:03.129Z,11.51
2023-03-11T01:05:32.403Z,11.52
2023-03-11T01:08:00.383Z,11.14
2023-03-11T01:10:29.266Z,11.51
2023-03-11T01:12:56.803Z,11.31
2023-03-11T01:15:31.467Z,11.18
2023-03-11T01:18:00.396Z,11.11
2023-03-11T01:20:28.149Z,11.06
2023-03-11T01:22:55.828Z,11.20
2023-03-11T01:25:24.480Z,11.43
2023-03-11T01:27:51.888Z,11.35
2023-03-11T01:30:22.240Z,11.25
2023-03-11T01:32:52.551Z,11.32
2023-03-11T01:35:22.038Z,11.13
2023-03-11T01:37:49.892Z,11.59
2023-03-11T01:40:20.791Z,11.65
2023-03-11T01:42:48.287Z,11.88
2023-03-11T01:45:34.193Z,12.16
2023-03-11T01:48:02.119Z,11.64
2023-03-11T01:50:34.878Z,11.99
2023-03-11T01:53:03.221Z,11.76
2023-03-11T01:55:31.720Z,12.00
2023-03-11T01:58:03.383Z,12.36
2023-03-11T02:00:31.385Z,12.19
2023-03-11T02:03:00.994Z,11.63
2023-03-11T02:05:28.906Z,11.46
2023-03-11T02:07:56.390Z,11.77
2023-03-11T02:10:25.099Z,11.07
2023-03-11T02:12:52.675Z,11.87
2023-03-11T02:15:24.160Z,11.22
2023-03-11T02:17:52.695Z,11.54
2023-03-11T02:20:35.625Z,11.61
2023-03-11T02:23:03.350Z,11.63
2023-03-11T02:25:35.009Z,11.12
2023-03-11T02:28:06.041Z,11.39
2023-03-11T02:30:34.335Z,11.26
2023-03-11T02:33:02.464Z,11.69
2023-03-11T02:35:31.610Z,11.69
2023-03-11T02:37:59.926Z,11.36
2023-03-11T02:40:29.925Z,11.09
2023-03-11T02:43:00.195Z,11.42
2023-03-11T02:45:29.942Z,11.19
2023-03-11T02:47:58.737Z,11.03
2023-03-11T02:50:27.084Z,11.39
2023-03-11T02:52:56.013Z,11.57
2023-03-11T02:55:23.657Z,11.48
2023-03-11T02:57:51.154Z,11.40
2023-03-11T03:00:19.371Z,11.37
2023-03-11T03:02:51.717Z,11.03
2023-03-11T03:05:20.830Z,11.21
2023-03-11T03:07:49.246Z,10.92
2023-03-11T03:10:19.513Z,10.82
2023-03-11T03:12:47.395Z,10.53
2023-03-11T03:15:16.088Z,10.80
2023-03-11T03:17:44.334Z,10.84
2023-03-11T03:20:14.026Z,10.89
2023-03-11T03:22:42.423Z,10.93
2023-03-11T03:25:10.903Z,10.86
2023-03-11T03:27:38.681Z,10.59
2023-03-11T03:30:07.027Z,10.74
2023-03-11T03:32:34.496Z,10.22
2023-03-11T03:35:03.221Z,10.13
2023-03-11T03:37:36.510Z,9.95
2023-03-11T03:40:08.380Z,9.82
2023-03-11T03:42:36.989Z,10.12
2023-03-11T03:45:07.630Z,9.79
2023-03-11T03:47:35.796Z,9.97
2023-03-11T03:50:08.500Z,9.89
2023-03-11T03:52:37.558Z,10.42
2023-03-11T03:55:05.983Z,10.12
2023-03-11T03:57:33.694Z,9.83
2023-03-11T04:00:01.598Z,9.78
2023-03-11T04:02:29.036Z,9.89
2023-03-11T04:04:57.412Z,9.98
2023-03-11T04:07:24.937Z,9.70
2023-03-11T04:09:52.373Z,9.56
2023-03-11T04:12:20.038Z,9.54
2023-03-11T04:14:47.507Z,9.61
2023-03-11T04:17:15.014Z,10.05
2023-03-11T04:19:42.714Z,9.40
2023-03-11T04:22:10.999Z,9.08
2023-03-11T04:24:38.404Z,9.25
2023-03-11T04:27:06.472Z,9.02
2023-03-11T04:29:34.050Z,9.40
2023-03-11T04:32:02.300Z,9.01
2023-03-11T04:34:30.883Z,9.00
2023-03-11T04:36:58.248Z,8.65
2023-03-11T04:39:26.299Z,8.83
2023-03-11T04:41:54.086Z,8.86
2023-03-11T04:44:21.977Z,8.63
2023-03-11T04:46:49.609Z,8.90
2023-03-11T04:49:17.248Z,8.25
2023-03-11T04:51:44.936Z,8.49
2023-03-11T04:54:12.486Z,8.50
2023-03-11T04:56:40.356Z,8.59
2023-03-11T04:59:07.836Z,8.47
2023-03-11T05:01:35.772Z,8.37
2023-03-11T05:04:03.982Z,8.05
2023-03-11T05:06:31.469Z,8.42
2023-03-11T05:09:00.378Z,8.17
2023-03-11T05:11:28.216Z,8.21
2023-03-11T05:13:55.790Z,7.87
2023-03-11T05:16:23.404Z,7.75
2023-03-11T05:18:51.226Z,7.91
2023-03-11T05:21:18.631Z,7.93
2023-03-11T05:23:45.979Z,7.74
2023-03-11T05:26:13.996Z,7.80
2023-03-11T05:28:42.104Z,7.69
2023-03-11T05:31:10.415Z,7.51
2023-03-11T05:33:38.331Z,7.64
2023-03-11T05:36:10.478Z,7.35
2023-03-11T05:38:38.407Z,7.74
2023-03-11T05:41:06.499Z,7.97
2023-03-11T05:43:34.827Z,7.44
2023-03-11T05:46:03.396Z,7.67
2023-03-11T05:48:31.397Z,7.84
2023-03-11T05:50:59.515Z,8.20
2023-03-11T05:53:27.610Z,7.85
2023-03-11T05:55:59.872Z,7.75
2023-03-11T05:58:28.968Z,7.46
2023-03-11T06:00:56.551Z,7.58
2023-03-11T06:03:24.330Z,7.64
2023-03-11T06:05:53.096Z,7.40
2023-03-11T06:08:21.996Z,6.99
2023-03-11T06:10:49.985Z,7.68
2023-03-11T06:13:17.715Z,7.47
2023-03-11T06:15:46.191Z,7.79
2023-03-11T06:18:14.194Z,6.95
2023-03-11T06:20:41.942Z,7.21
2023-03-11T06:23:09.339Z,7.36
2023-03-11T06:25:36.990Z,7.28
2023-03-11T06:28:04.613Z,7.18
2023-03-11T06:30:32.171Z,7.42
2023-03-11T06:33:00.247Z,7.46
2023-03-11T06:35:27.597Z,7.54
2023-03-11T06:37:55.850Z,7.27
2023-03-11T06:40:23.537Z,7.40
2023-03-11T06:42:50.946Z,7.47
2023-03-11T06:45:20.618Z,7.21
2023-03-11T06:47:48.941Z,7.71
2023-03-11T06:50:16.832Z,7.52
2023-03-11T06:52:44.245Z,7.77
2023-03-11T06:55:12.134Z,7.62
2023-03-11T06:57:39.595Z,7.09
2023-03-11T07:00:11.782Z,7.52
2023-03-11T07:02:40.484Z,7.43
2023-03-11T07:05:08.640Z,7.54
2023-03-11T07:07:36.171Z,7.96
2023-03-11T07:10:05.350Z,8.48
2023-03-11T07:12:32.953Z,8.61
2023-03-11T07:15:00.646Z,8.29
2023-03-11T07:17:28.540Z,7.97
2023-03-11T07:19:56.723Z,8.30
2023-03-11T07:22:24.114Z,8.06
2023-03-11T07:24:51.827Z,8.47
2023-03-11T07:27:19.773Z,7.84
2023-03-11T07:29:47.201Z,8.08
2023-03-11T07:32:15.278Z,7.53
2023-03-11T07:34:42.873Z,7.88
2023-03-11T07:37:10.316Z,8.22
2023-03-11T07:39:39.425Z,8.80
2023-03-11T07:42:06.958Z,9.16
2023-03-11T07:44:34.614Z,9.15
2023-03-11T07:47:06.071Z,8.55
2023-03-11T07:49:33.837Z,8.13
2023-03-11T07:52:01.294Z,7.87
2023-03-11T07:54:28.938Z,7.22
2023-03-11T07:56:56.367Z,7.53
2023-03-11T07:59:23.754Z,7.43
2023-03-11T08:01:51.723Z,7.93
2023-03-11T08:04:19.430Z,7.52
2023-03-11T08:06:47.991Z,7.42
2023-03-11T08:09:15.608Z,7.38
2023-03-11T08:11:43.273Z,7.92
2023-03-11T08:14:10.735Z,8.26
2023-03-11T08:16:40.153Z,8.65
2023-03-11T08:19:07.828Z,7.66
2023-03-11T08:21:35.217Z,7.70
2023-03-11T08:24:05.007Z,8.19
2023-03-11T08:26:33.790Z,8.57
2023-03-11T08:29:01.164Z,8.83
2023-03-11T08:31:31.143Z,8.37
2023-03-11T08:34:01.777Z,8.22
2023-03-11T08:36:30.027Z,8.28
2023-03-11T08:38:58.033Z,8.62
2023-03-11T08:41:25.926Z,8.52
2023-03-11T08:43:53.587Z,8.74
2023-03-11T08:46:33.304Z,9.08
2023-03-11T08:49:01.678Z,9.23
2023-03-11T08:51:31.066Z,9.13
2023-03-11T08:53:59.077Z,8.85
2023-03-11T08:56:26.859Z,8.82
2023-03-11T08:58:54.409Z,9.39
2023-03-11T09:01:23.005Z,9.55
2023-03-11T09:03:50.740Z,9.43
2023-03-11T09:06:18.691Z,9.24
2023-03-11T09:08:46.923Z,9.18
2023-03-11T09:11:16.153Z,9.28
2023-03-11T09:13:44.095Z,9.41
2023-03-11T09:16:16.305Z,8.88
2023-03-11T09:18:44.038Z,9.03
2023-03-11T09:21:11.533Z,8.70
2023-03-11T09:23:41.124Z,8.48
2023-03-11T09:26:10.532Z,8.00
2023-03-11T09:28:38.006Z,7.63
2023-03-11T09:31:05.943Z,7.74
2023-03-11T09:33:40.229Z,8.23
2023-03-11T09:36:08.453Z,8.21
2023-03-11T09:38:36.062Z,8.35
2023-03-11T09:41:18.713Z,8.60
2023-03-11T09:44:01.361Z,7.91
2023-03-11T09:46:47.645Z,7.75
2023-03-11T09:49:41.869Z,7.62
2023-03-11T09:52:17.278Z,7.63
2023-03-11T09:54:53.615Z,7.77
2023-03-11T09:57:29.688Z,7.73
2023-03-11T09:59:58.220Z,8.07
2023-03-11T10:02:27.131Z,8.26
2023-03-11T10:05:01.742Z,8.81
2023-03-11T10:07:38.240Z,8.20
2023-03-11T10:10:07.140Z,8.44
2023-03-11T10:12:52.432Z,8.21
2023-03-11T10:15:23.528Z,8.35
2023-03-11T10:18:18.609Z,8.30
2023-03-11T10:21:03.750Z,8.15
2023-03-11T10:23:50.415Z,7.69
2023-03-11T10:26:20.807Z,7.78
2023-03-11T10:29:03.840Z,8.03
2023-03-11T10:31:35.976Z,7.69
2023-03-11T10:34:11.348Z,8.05
2023-03-11T10:37:01.944Z,7.80
2023-03-11T10:39:30.500Z,7.22
2023-03-11T10:42:01.837Z,8.08
2023-03-11T10:44:40.277Z,7.68
2023-03-11T10:47:15.848Z,7.85
2023-03-11T10:49:43.242Z,8.58
2023-03-11T10:52:10.940Z,8.83
2023-03-11T10:54:43.861Z,9.04
2023-03-11T10:57:38.914Z,9.18
2023-03-11T11:00:17.482Z,9.28
2023-03-11T11:02:58.110Z,9.64
2023-03-11T11:05:32.695Z,9.33
2023-03-11T11:08:17.366Z,9.53
2023-03-11T11:10:53.466Z,9.93
2023-03-11T11:13:23.519Z,9.87
2023-03-11T11:16:05.509Z,9.15
2023-03-11T11:18:49.274Z,9.32
2023-03-11T11:21:32.212Z,9.71
2023-03-11T11:24:20.333Z,9.21
2023-03-11T11:27:18.567Z,9.28
2023-03-11T11:29:47.507Z,9.13
2023-03-11T11:32:18.978Z,8.94
2023-03-11T11:34:59.868Z,8.78
2023-03-11T11:37:32.057Z,8.82
2023-03-11T11:40:11.483Z,8.85
2023-03-11T11:42:40.740Z,8.65
2023-03-11T11:45:29.347Z,8.51
2023-03-11T11:48:00.769Z,8.70
2023-03-11T11:50:36.007Z,8.66
2023-03-11T11:53:46.938Z,9.22
2023-03-11T11:56:14.666Z,8.61
2023-03-11T11:58:42.154Z,8.28
2023-03-11T12:01:32.021Z,8.91
2023-03-11T12:04:02.704Z,8.65
2023-03-11T12:06:52.031Z,8.55
2023-03-11T12:09:34.739Z,8.77
2023-03-11T12:12:28.269Z,8.29
2023-03-11T12:15:07.409Z,7.66
2023-03-11T12:17:38.239Z,8.31
2023-03-11T12:20:28.083Z,8.36
2023-03-11T12:23:01.904Z,8.39
2023-03-11T12:25:44.860Z,8.44
2023-03-11T12:28:24.890Z,8.16
2023-03-11T12:30:59.245Z,8.47
2023-03-11T12:33:40.492Z,8.78
2023-03-11T12:36:22.031Z,8.98
2023-03-11T12:38:50.140Z,8.94
2023-03-11T12:41:31.557Z,8.95
2023-03-11T12:44:04.252Z,8.90
2023-03-11T12:47:10.417Z,8.66
2023-03-11T12:49:40.868Z,8.96
2023-03-11T12:52:11.681Z,9.02
2023-03-11T12:54:50.000Z,8.66
2023-03-11T12:57:20.504Z,8.68
2023-03-11T13:00:18.232Z,9.02
2023-03-11T13:03:16.603Z,8.72
2023-03-11T13:06:05.627Z,9.01
2023-03-11T13:08:44.341Z,9.17
2023-03-11T13:11:28.864Z,9.17
2023-03-11T13:14:29.406Z,9.80
2023-03-11T13:17:17.856Z,9.37
2023-03-11T13:19:51.091Z,8.69
2023-03-11T13:22:40.528Z,8.36
2023-03-11T13:25:29.172Z,8.57
2023-03-11T13:28:41.843Z,8.35
2023-03-11T13:31:38.608Z,8.83
2023-03-11T13:34:50.457Z,8.51
2023-03-11T13:37:51.941Z,8.41
2023-03-11T13:40:29.627Z,8.93
2023-03-11T13:43:17.411Z,8.56
2023-03-11T13:45:56.444Z,8.44
2023-03-11T13:48:40.662Z,8.38
2023-03-11T13:51:15.372Z,8.39
2023-03-11T13:54:11.347Z,8.26
2023-03-11T13:56:44.595Z,8.52
2023-03-11T13:59:29.671Z,8.53
2023-03-11T14:02:00.336Z,8.26
2023-03-11T14:04:39.825Z,8.08
2023-03-11T14:07:18.227Z,8.40
2023-03-11T14:09:45.941Z,8.74
2023-03-11T14:12:14.067Z,8.51
2023-03-11T14:14:53.474Z,8.43
2023-03-11T14:17:21.439Z,8.90
2023-03-11T14:20:10.704Z,8.70
2023-03-11T14:22:38.752Z,8.35
2023-03-11T14:25:10.838Z,8.40
2023-03-11T14:27:39.366Z,7.99
2023-03-11T14:30:07.197Z,7.90
2023-03-11T14:32:35.446Z,7.95
2023-03-11T14:35:18.723Z,8.45
2023-03-11T14:37:46.134Z,7.82
2023-03-11T14:40:43.178Z,8.03
2023-03-11T14:43:11.757Z,8.27
2023-03-11T14:45:40.203Z,7.92
2023-03-11T14:48:27.684Z,7.94
2023-03-11T14:50:58.351Z,7.58
2023-03-11T14:53:30.168Z,7.55
2023-03-11T14:55:59.477Z,7.61
2023-03-11T14:58:31.969Z,7.75
2023-03-11T15:01:05.923Z,7.73
2023-03-11T15:03:39.773Z,7.70
2023-03-11T15:06:10.177Z,7.41
2023-03-11T15:08:44.079Z,7.29
2023-03-11T15:11:15.100Z,7.24
2023-03-11T15:13:44.409Z,7.36
2023-03-11T15:16:41.298Z,7.08
2023-03-11T15:19:31.400Z,7.33
2023-03-11T15:22:06.422Z,7.14
2023-03-11T15:24:34.542Z,7.51
2023-03-11T15:27:39.383Z,7.75
2023-03-11T15:30:20.906Z,7.58
2023-03-11T15:32:49.066Z,8.16
2023-03-11T15:35:21.825Z,7.43
2023-03-11T15:38:09.252Z,7.21
2023-03-11T15:40:45.404Z,7.52
2023-03-11T15:43:16.323Z,7.27
2023-03-11T15:45:44.107Z,7.34
2023-03-11T15:48:12.668Z,7.52
2023-03-11T15:50:53.349Z,7.71
2023-03-11T15:53:24.179Z,7.12
2023-03-11T15:55:52.749Z,7.31
2023-03-11T15:58:20.988Z,7.32
2023-03-11T16:00:56.557Z,7.54
2023-03-11T16:03:25.425Z,6.91
2023-03-11T16:05:52.875Z,6.84
2023-03-11T16:08:20.265Z,7.20
2023-03-11T16:10:48.031Z,7.30
2023-03-11T16:13:16.117Z,7.21
2023-03-11T16:15:43.872Z,7.09
2023-03-11T16:18:11.988Z,6.71
2023-03-11T16:20:50.048Z,6.56
2023-03-11T16:23:21.257Z,6.71
2023-03-11T16:25:49.026Z,6.53
2023-03-11T16:28:17.070Z,6.46
2023-03-11T16:30:45.039Z,6.25
2023-03-11T16:33:12.473Z,6.52
2023-03-11T16:35:43.360Z,6.72
2023-03-11T16:38:11.065Z,6.70
2023-03-11T16:40:38.571Z,6.43
2023-03-11T16:43:11.273Z,6.20
2023-03-11T16:45:39.168Z,6.12
2023-03-11T16:48:07.252Z,6.26
2023-03-11T16:50:37.549Z,6.52
2023-03-11T16:53:05.598Z,6.34
2023-03-11T16:55:33.114Z,6.61
2023-03-11T16:58:00.522Z,6.44
2023-03-11T17:00:28.232Z,7.15
2023-03-11T17:02:55.682Z,6.58
2023-03-11T17:05:23.366Z,6.63
2023-03-11T17:08:00.979Z,6.78
2023-03-11T17:10:28.702Z,6.93
2023-03-11T17:12:56.594Z,7.43
2023-03-11T17:15:23.964Z,7.06
2023-03-11T17:17:51.627Z,6.89
2023-03-11T17:20:21.629Z,6.98
2023-03-11T17:22:49.372Z,6.84
2023-03-11T17:25:16.976Z,6.80
2023-03-11T17:27:44.836Z,6.63
2023-03-11T17:30:14.876Z,6.79
2023-03-11T17:32:43.641Z,6.35
2023-03-11T17:35:11.376Z,6.60
2023-03-11T17:37:38.839Z,6.76
2023-03-11T17:40:07.092Z,6.52
2023-03-11T17:42:34.823Z,6.60
2023-03-11T17:45:02.210Z,6.62
2023-03-11T17:47:29.886Z,7.05
2023-03-11T17:49:57.707Z,6.69
2023-03-11T17:52:25.240Z,6.44
2023-03-11T17:54:53.552Z,6.61
2023-03-11T17:57:21.393Z,6.62
2023-03-11T17:59:52.750Z,6.72
2023-03-11T18:02:21.104Z,6.85
2023-03-11T18:04:53.809Z,6.69
2023-03-11T18:07:23.544Z,6.55
2023-03-11T18:09:54.864Z,6.21
2023-03-11T18:12:22.252Z,6.47
2023-03-11T18:14:49.676Z,6.54
2023-03-11T18:17:18.647Z,6.55
2023-03-11T18:19:46.288Z,6.20
2023-03-11T18:22:15.511Z,5.87
2023-03-11T18:24:43.300Z,5.97
2023-03-11T18:27:10.872Z,5.76
2023-03-11T18:29:38.441Z,5.94
2023-03-11T18:32:06.405Z,6.21
2023-03-11T18:34:34.148Z,5.82
2023-03-11T18:37:01.674Z,6.29
2023-03-11T18:39:29.435Z,5.75
2023-03-11T18:41:56.774Z,5.69
2023-03-11T18:44:24.461Z,6.04
2023-03-11T18:46:52.116Z,5.83
2023-03-11T18:49:19.680Z,6.20
2023-03-11T18:51:47.093Z,6.52
2023-03-11T18:54:14.898Z,6.72
2023-03-11T18:56:42.405Z,6.79
2023-03-11T18:59:12.122Z,6.53
2023-03-11T19:01:40.219Z,6.60
2023-03-11T19:04:07.790Z,6.14
2023-03-11T19:06:35.264Z,6.11
2023-03-11T19:09:03.983Z,5.73
2023-03-11T19:11:31.399Z,6.20
2023-03-11T19:14:00.016Z,5.99
2023-03-11T19:16:27.824Z,6.18
2023-03-11T19:18:55.600Z,5.98
2023-03-11T19:21:23.325Z,5.66
2023-03-11T19:23:52.873Z,5.89
2023-03-11T19:26:23.928Z,5.79
2023-03-11T19:28:55.799Z,6.41
2023-03-11T19:31:23.258Z,5.81
2023-03-11T19:33:51.258Z,5.82
2023-03-11T19:36:19.020Z,5.41
2023-03-11T19:38:46.843Z,5.43
2023-03-11T19:41:20.289Z,5.63
2023-03-11T19:43:48.300Z,5.80
2023-03-11T19:46:20.635Z,6.24
2023-03-11T19:48:49.510Z,5.81
2023-03-11T19:51:17.539Z,5.44
2023-03-11T19:53:46.073Z,5.21
2023-03-11T19:56:15.380Z,5.70
2023-03-11T19:58:42.956Z,5.56
2023-03-11T20:01:17.698Z,5.26
2023-03-11T20:03:45.490Z,5.21
2023-03-11T20:06:16.359Z,5.25
2023-03-11T20:08:44.529Z,5.14
2023-03-11T20:11:12.597Z,5.25
2023-03-11T20:13:42.676Z,4.89
2023-03-11T20:16:18.643Z,4.99
2023-03-11T20:18:50.447Z,4.84
2023-03-11T20:21:17.966Z,5.18
2023-03-11T20:23:45.415Z,5.59
2023-03-11T20:26:15.551Z,5.21
2023-03-11T20:28:43.672Z,5.11
2023-03-11T20:31:12.274Z,4.84
2023-03-11T20:33:40.275Z,5.24
2023-03-11T20:36:10.616Z,5.00
2023-03-11T20:38:38.135Z,5.21
2023-03-11T20:41:08.120Z,5.23
2023-03-11T20:43:37.134Z,5.77
2023-03-11T20:46:06.148Z,6.02
2023-03-11T20:48:34.788Z,6.10
2023-03-11T20:51:04.439Z,5.65
2023-03-11T20:53:32.149Z,6.01
2023-03-11T20:56:05.361Z,5.88
2023-03-11T20:58:33.016Z,6.38
2023-03-11T21:01:00.979Z,6.15
2023-03-11T21:03:28.758Z,6.21
2023-03-11T21:05:56.596Z,5.26
2023-03-11T21:08:24.256Z,5.69
2023-03-11T21:10:51.717Z,5.26
2023-03-11T21:13:19.304Z,5.96
2023-03-11T21:15:47.025Z,5.95
2023-03-11T21:18:14.453Z,5.70
2023-03-11T21:20:42.094Z,5.97
2023-03-11T21:23:09.861Z,6.37
2023-03-11T21:25:42.644Z,6.33
2023-03-11T21:28:10.448Z,5.63
2023-03-11T21:30:37.916Z,6.46
2023-03-11T21:33:05.596Z,5.90
2023-03-11T21:35:33.745Z,5.86
2023-03-11T21:38:01.211Z,6.72
2023-03-11T21:40:28.652Z,6.11
2023-03-11T21:42:56.303Z,6.21
2023-03-11T21:45:23.831Z,6.16
2023-03-11T21:47:51.324Z,6.42
2023-03-11T21:50:19.113Z,6.34
2023-03-11T21:52:46.693Z,6.80
2023-03-11T21:55:14.137Z,6.53
2023-03-11T21:57:41.779Z,6.58
2023-03-11T22:00:10.248Z,7.06
2023-03-11T22:02:38.110Z,7.05
2023-03-11T22:05:06.124Z,6.92
2023-03-11T22:07:33.493Z,6.60
2023-03-11T22:10:01.155Z,6.57
2023-03-11T22:12:28.753Z,6.47
2023-03-11T22:14:56.176Z,6.35
2023-03-11T22:17:24.729Z,6.36
2023-03-11T22:19:52.166Z,5.61
2023-03-11T22:22:19.880Z,5.34
2023-03-11T22:24:47.706Z,5.04
2023-03-11T22:27:15.093Z,4.94
2023-03-11T22:29:44.336Z,5.39
2023-03-11T22:32:11.974Z,5.03
2023-03-11T22:34:39.330Z,4.99
2023-03-11T22:37:06.794Z,4.82
2023-03-11T22:39:34.579Z,5.16
2023-03-11T22:42:02.282Z,5.07
2023-03-11T22:44:29.643Z,5.78
2023-03-11T22:46:57.332Z,5.97
2023-03-11T22:49:24.701Z,5.82
2023-03-11T22:51:52.089Z,5.61
2023-03-11T22:54:19.809Z,5.32
2023-03-11T22:56:47.306Z,5.50
2023-03-11T22:59:14.690Z,5.12
2023-03-11T23:01:42.499Z,5.80
2023-03-11T23:04:10.541Z,5.79
2023-03-11T23:06:37.980Z,5.46
2023-03-11T23:09:05.636Z,5.00
2023-03-11T23:11:33.048Z,6.03
2023-03-11T23:14:00.441Z,5.98
2023-03-11T23:16:28.152Z,5.79
2023-03-11T23:18:56.142Z,6.29
2023-03-11T23:21:31.641Z,5.61
2023-03-11T23:24:00.901Z,4.84
2023-03-11T23:26:29.443Z,4.89
2023-03-11T23:28:58.360Z,5.00
2023-03-11T23:31:26.461Z,5.33
2023-03-11T23:33:54.274Z,5.34
2023-03-11T23:36:23.080Z,4.99
2023-03-11T23:38:50.998Z,5.59
2023-03-11T23:41:20.959Z,5.15
2023-03-11T23:43:48.378Z,4.97
2023-03-11T23:46:16.208Z,5.07
2023-03-11T23:48:43.683Z,5.81
2023-03-11T23:51:11.212Z,5.68
2023-03-11T23:53:39.173Z,4.63
2023-03-11T23:56:18.398Z,5.37
2023-03-11T23:58:46.506Z,5.25
